createdAt,value
2022-12-12T09:02:17.674Z,61.87
2022-12-12T10:38:00.704Z,59.56
2022-12-12T10:40:32.833Z,58.96
2022-12-12T10:43:10.993Z,58.84
2022-12-12T10:45:43.524Z,58.23
2022-12-12T10:48:10.829Z,58.22
2022-12-12T10:50:42.559Z,57.73
2022-12-12T10:53:11.722Z,57.35
2022-12-12T10:55:49.606Z,57.75
2022-12-12T10:58:19.670Z,56.94
2022-12-12T11:00:49.524Z,57.83
2022-12-12T11:03:39.868Z,56.73
2022-12-12T11:06:12.079Z,55.68
2022-12-12T11:08:39.123Z,55.70
2022-12-12T11:11:21.203Z,55.07
2022-12-12T11:13:53.357Z,54.67
2022-12-12T11:16:30.310Z,54.62
2022-12-12T11:18:57.211Z,54.24
2022-12-12T11:21:24.055Z,54.22
2022-12-12T11:23:55.143Z,54.57
2022-12-12T11:26:22.434Z,54.01
2022-12-12T11:28:57.225Z,54.65
2022-12-12T11:31:27.450Z,54.48
2022-12-12T11:33:59.605Z,54.77
2022-12-12T11:36:36.938Z,54.64
2022-12-12T11:39:16.505Z,54.18
2022-12-12T11:42:13.070Z,54.75
2022-12-12T11:44:41.006Z,53.95
2022-12-12T11:47:24.288Z,54.64
2022-12-12T11:49:57.404Z,53.78
2022-12-12T11:52:28.570Z,53.90
2022-12-12T11:54:56.066Z,53.83
2022-12-12T11:57:22.590Z,53.95
2022-12-12T12:00:11.636Z,54.20
2022-12-12T12:02:53.454Z,54.04
2022-12-12T12:05:32.900Z,54.94
2022-12-12T12:08:30.262Z,56.09
2022-12-12T12:11:32.903Z,55.12
2022-12-12T12:14:14.805Z,54.51
2022-12-12T12:16:46.793Z,53.38
2022-12-12T12:19:18.439Z,53.35
2022-12-12T12:22:07.357Z,53.31
2022-12-12T12:25:00.692Z,52.87
2022-12-12T12:27:38.889Z,52.42
2022-12-12T12:30:25.987Z,52.73
2022-12-12T12:32:52.410Z,51.95
2022-12-12T12:35:28.841Z,51.51
2022-12-12T12:38:02.613Z,52.15
2022-12-12T12:40:47.968Z,51.59
2022-12-12T12:43:43.447Z,51.39
2022-12-12T12:46:20.508Z,51.12
2022-12-12T12:48:52.622Z,51.04
2022-12-12T12:51:39.271Z,50.88
2022-12-12T12:54:41.881Z,50.04
2022-12-12T12:57:32.940Z,50.37
2022-12-12T13:00:06.200Z,49.43
2022-12-12T13:02:55.923Z,50.10
2022-12-12T13:06:01.166Z,50.14
2022-12-12T13:09:02.976Z,50.30
2022-12-12T13:11:42.034Z,50.23
2022-12-12T13:14:34.294Z,49.96
2022-12-12T13:17:06.717Z,49.92
2022-12-12T13:19:38.085Z,49.77
2022-12-12T13:22:11.793Z,49.53
2022-12-12T13:25:11.347Z,49.29
2022-12-12T13:27:50.604Z,49.13
2022-12-12T13:30:24.665Z,48.32
2022-12-12T13:33:25.685Z,48.38
2022-12-12T13:35:59.207Z,48.47
2022-12-12T13:38:32.438Z,47.90
2022-12-12T13:41:06.287Z,48.44
2022-12-12T13:43:38.876Z,47.97
2022-12-12T13:46:20.803Z,48.17
2022-12-12T13:49:08.324Z,48.15
2022-12-12T13:51:43.099Z,47.22
2022-12-12T13:54:13.689Z,46.98
2022-12-12T13:56:46.110Z,47.09
2022-12-12T13:59:27.495Z,47.38
2022-12-12T14:02:01.960Z,47.11
2022-12-12T14:04:44.398Z,46.91
2022-12-12T14:07:22.271Z,47.57
2022-12-12T14:09:52.341Z,47.27
2022-12-12T14:12:31.825Z,47.34
2022-12-12T14:15:07.097Z,47.23
2022-12-12T14:17:42.090Z,46.69
2022-12-12T14:20:25.949Z,46.96
2022-12-12T14:22:52.430Z,46.34
2022-12-12T14:25:29.056Z,46.00
2022-12-12T14:28:32.518Z,46.59
2022-12-12T14:31:10.188Z,46.15
2022-12-12T14:34:02.077Z,46.29
2022-12-12T14:36:40.657Z,45.79
2022-12-12T14:39:31.241Z,45.81
2022-12-12T14:41:59.032Z,45.53
2022-12-12T14:44:37.227Z,45.51
2022-12-12T14:47:09.030Z,45.02
2022-12-12T14:49:35.675Z,45.81
2022-12-12T14:52:02.474Z,44.85
2022-12-12T14:54:30.830Z,44.45
2022-12-12T14:57:01.738Z,44.61
2022-12-12T14:59:36.982Z,44.56
2022-12-12T15:02:18.793Z,44.49
2022-12-12T15:04:49.697Z,45.73
2022-12-12T15:07:31.102Z,44.83
2022-12-12T15:09:57.837Z,44.54
2022-12-12T15:12:27.247Z,44.26
2022-12-12T15:14:56.533Z,43.91
2022-12-12T15:17:32.481Z,44.12
2022-12-12T15:20:01.633Z,43.75
2022-12-12T15:22:33.919Z,43.92
2022-12-12T15:25:15.797Z,43.70
2022-12-12T15:27:50.752Z,43.59
2022-12-12T15:30:32.446Z,43.52
2022-12-12T15:33:00.539Z,42.62
2022-12-12T15:35:27.657Z,43.14
2022-12-12T15:37:59.030Z,43.76
2022-12-12T15:40:30.042Z,43.72
2022-12-12T15:43:00.650Z,43.72
2022-12-12T15:45:42.784Z,43.71
2022-12-12T15:48:15.554Z,43.52
2022-12-12T15:50:41.957Z,43.44
2022-12-12T15:53:30.072Z,43.88
2022-12-12T15:56:07.682Z,43.65
2022-12-12T15:58:38.402Z,43.73
2022-12-12T16:01:06.564Z,44.10
2022-12-12T16:03:33.971Z,43.75
2022-12-12T16:06:22.959Z,43.92
2022-12-12T16:09:15.868Z,43.67
2022-12-12T16:11:47.115Z,43.15
2022-12-12T16:14:27.268Z,42.97
2022-12-12T16:17:12.974Z,43.16
2022-12-12T16:19:47.388Z,42.72
2022-12-12T16:22:40.017Z,43.22
2022-12-12T16:25:16.317Z,42.45
2022-12-12T16:27:43.769Z,42.62
2022-12-12T16:30:14.846Z,42.40
2022-12-12T16:32:42.330Z,42.38
2022-12-12T16:35:15.317Z,42.53
2022-12-12T16:37:42.322Z,42.38
2022-12-12T16:40:13.623Z,42.51
2022-12-12T16:42:40.426Z,42.45
2022-12-12T16:45:07.217Z,42.44
2022-12-12T16:47:33.898Z,42.34
2022-12-12T16:50:00.425Z,42.01
2022-12-12T16:52:27.163Z,42.34
2022-12-12T16:54:54.122Z,42.13
2022-12-12T16:57:21.647Z,42.18
2022-12-12T16:59:48.115Z,41.65
2022-12-12T17:02:20.896Z,41.69
2022-12-12T21:15:15.134Z,55.76
